Terminal Aerodrome Forecast
Issued by NWS

Home | Current Version | Previous Version | Text Only | Print | Product List | Glossary On
Versions: 1 2 3 4 5 6 7 8 9 10 11 12 13 14 15 16 17 18 19 20 21 22
375
FTUS41 KGYX 180849 AAA
TAFHIE
TAF AMD
KHIE 180849Z 1809/1906 VRB03KT 2SM -SN BR OVC015
      TEMPO 1809/1811 1 1/2SM -SN OVC012
     FM181100 27005KT 6SM -SHSN OVC025
     FM181700 29010KT P6SM BKN040=

USA.gov is the U.S. government's official web portal to all federal, state and local government web resources and services.